»·PEaware :: PVA1626 KLAS-KSFO

PVA1626 :: KLAS-KSFO

FLIGHT INFORMATION

Flight Status: Arrived
Operator: Unknown
More flights by this operator :: More flights under this callsign
Pilot: Michael O. (129)
Aircraft: GATES LEARJET LEARJET 60
(LJ60)
More flights by this aircraft type
Origin: KLAS McCarran Intl
United States
Destination: KSFO San Francisco Intl
United States
More flights between these airports :: More routes between these airports
Route: SHEAD7 OAL MOD4
File this flight plan on PilotEdge
Remarks: / V /
Altitude:
(Current/Filed)
27,000ft
Speed:
(Current/Filed)
400kts
Departed: 19-Jul-13 04:53 PM
Arrived: 19-Jul-13 06:06 PM
Distance/Time
Traveled:
359nm/1:13
Distance/Time
To Go:
Arrived

Flight Plot

Page will automatically refresh every two minutes.


Map Options




Map Legend


Flown Route
Filed Route
Departure Airport
Arrival Airport
Navaid (VOR, NDB)
Fix

Horizontal Profiles

Position Reports

Time Latitude Longitude Heading Altitude Ground
Speed
19-Jul-13 16:36 36.081992 -115.153056 8 2188ft 0kts
19-Jul-13 16:37 36.081992 -115.153056 8 2188ft 0kts
19-Jul-13 16:38 36.081992 -115.153056 8 2188ft 0kts
19-Jul-13 16:39 36.081992 -115.153056 8 2188ft 0kts
19-Jul-13 16:40 36.081992 -115.153056 8 2188ft 0kts
19-Jul-13 16:41 36.081992 -115.153056 8 2188ft 0kts
19-Jul-13 16:42 36.081992 -115.153056 8 2188ft 0kts
19-Jul-13 16:43 36.081992 -115.153056 8 2188ft 0kts
19-Jul-13 16:44 36.081992 -115.153056 8 2188ft 0kts
19-Jul-13 16:45 36.081992 -115.153056 8 2188ft 0kts
19-Jul-13 16:46 36.081992 -115.153056 8 2188ft 0kts
19-Jul-13 16:47 36.081992 -115.153056 8 2188ft 0kts
19-Jul-13 16:48 36.081992 -115.153056 8 2188ft 0kts
19-Jul-13 16:49 36.081992 -115.153056 8 2188ft 0kts
19-Jul-13 16:50 36.081992 -115.153056 8 2188ft 0kts
19-Jul-13 16:51 36.081672 -115.153115 8 2188ft 2kts
19-Jul-13 16:52 36.083299 -115.155333 263 2188ft 17kts
19-Jul-13 16:53 36.087498 -115.158550 291 2188ft 0kts
19-Jul-13 16:54 36.087551 -115.158691 297 2188ft 9kts
19-Jul-13 16:55 36.061980 -115.175075 206 2908ft 194kts
19-Jul-13 16:56 36.015238 -115.205950 224 6040ft 204kts
19-Jul-13 16:56 35.987771 -115.263051 241 6823ft 261kts
19-Jul-13 16:57 35.939539 -115.341044 222 8394ft 296kts
19-Jul-13 16:58 35.889201 -115.420970 258 9533ft 305kts
19-Jul-13 16:59 35.887976 -115.526113 271 12995ft 313kts
19-Jul-13 17:00 35.890213 -115.636380 271 15925ft 333kts
19-Jul-13 17:01 35.892409 -115.752997 271 18884ft 347kts
19-Jul-13 17:02 35.894404 -115.882106 270 20036ft 410kts
19-Jul-13 17:03 35.934289 -116.013854 313 21828ft 429kts
19-Jul-13 17:04 36.022459 -116.117203 317 23593ft 443kts
19-Jul-13 17:05 36.113536 -116.222289 316 25192ft 453kts
19-Jul-13 17:06 36.184514 -116.304212 316 26245ft 463kts
19-Jul-13 17:07 36.184514 -116.304212 316 26245ft 463kts
19-Jul-13 17:34 37.817209 -119.442708 258 27278ft 441kts
19-Jul-13 17:35 37.798669 -119.596567 258 27270ft 442kts
19-Jul-13 17:36 37.779962 -119.749756 258 27270ft 441kts
19-Jul-13 17:37 37.761444 -119.903782 257 27206ft 443kts
19-Jul-13 17:38 37.742852 -120.057322 257 27052ft 443kts
19-Jul-13 17:39 37.723675 -120.211338 256 26893ft 443kts
19-Jul-13 17:40 37.704166 -120.364896 256 26844ft 443kts
19-Jul-13 17:41 37.684428 -120.518806 256 26839ft 443kts
19-Jul-13 17:42 37.665170 -120.670367 257 25322ft 429kts
19-Jul-13 17:43 37.645971 -120.817079 259 22502ft 419kts
19-Jul-13 17:44 37.627090 -120.960138 260 20149ft 405kts
19-Jul-13 17:45 37.611852 -121.095387 261 19820ft 364kts
19-Jul-13 17:46 37.598771 -121.211120 261 19816ft 324kts
19-Jul-13 17:47 37.584912 -121.333286 261 19856ft 350kts
19-Jul-13 17:48 37.571056 -121.452921 261 18737ft 345kts
19-Jul-13 17:49 37.556835 -121.573636 261 15394ft 349kts
19-Jul-13 17:50 37.534490 -121.696801 251 11664ft 363kts
19-Jul-13 17:51 37.507569 -121.806539 252 11084ft 292kts
19-Jul-13 17:52 37.486456 -121.893961 253 11002ft 232kts
19-Jul-13 17:53 37.466455 -121.977100 254 8682ft 277kts
19-Jul-13 17:54 37.510388 -122.051354 331 6024ft 296kts
19-Jul-13 17:55 37.532994 -122.145906 277 5984ft 276kts
19-Jul-13 17:56 37.563193 -122.237472 300 3412ft 299kts
19-Jul-13 17:57 37.598133 -122.320604 301 2712ft 183kts
19-Jul-13 17:58 37.609978 -122.373830 226 4435ft 162kts
19-Jul-13 17:59 37.571184 -122.344050 124 5188ft 252kts
19-Jul-13 18:00 37.525166 -122.263301 124 5066ft 266kts
19-Jul-13 18:01 37.483702 -122.192233 124 4842ft 244kts
19-Jul-13 18:02 37.494251 -122.125911 12 3267ft 217kts
19-Jul-13 18:03 37.533799 -122.167497 300 3095ft 177kts
19-Jul-13 18:04 37.556938 -122.222504 298 2360ft 185kts
19-Jul-13 18:05 37.578733 -122.274369 298 1453ft 150kts
19-Jul-13 18:06 37.597506 -122.319060 297 700ft 137kts
19-Jul-13 18:07 37.614052 -122.358479 296 29ft 117kts
19-Jul-13 18:08 37.621759 -122.377007 285 20ft 27kts
19-Jul-13 18:09 37.620173 -122.382779 121 20ft 20kts
19-Jul-13 18:10 37.618500 -122.381759 146 20ft 0kts
19-Jul-13 18:11 37.618500 -122.381759 146 19ft 0kts
19-Jul-13 18:12 37.618500 -122.381759 146 19ft 0kts

Navigation Log

Ident Type
Flight plan parsing failed, navigation log unavailable